To NAV CANADA Home Page Login to a new session Search on AWWS site Disclaimer Vers la page française équivalente Tips FAQ What's new on the site To the Forecasts and Observations / NOTAM section To "File a Flight Plan" website Publications and other links Update of the User's profile FIC Telephone Numbers My Weather Data Folder Route Weather Data Regional Weather Data Local Weather Data To the Forecasts and Observations / NOTAM section
Request Generated 10/20/2021 at 20:45:55 UTC . Weather information available at that time is displayed.


Go to a specific product

Save this request

NOTAM

NOTAM


SIGMET
To the Product Selector

SIGMETS GFACN32

GFACN32 - No SIGMET bulletins in effect



AIRMET
To the Product Selector

AIRMETS GFACN32

GFACN32 - No AIRMET bulletins in effect



PIREP
To the Product Selector

FIR_WINNIPEG (WG)

WG - PIREP not available



METAR/TAF
To the Product Selector

REGINA INTL/SK    

METAR CYQR 202000Z 13012KT 15SM FEW240 04/M04 A3027 RMK CI2 SLP282=
METAR CYQR 201900Z 14010KT 15SM FEW019 FEW240 04/M03 A3029 RMK CF1CI1 CF TR CI TR SLP289=
SPECI CYQR 201803Z 17010KT 15SM FEW019 02/M04 A3030 RMK CF2 SLP294=
METAR CYQR 201800Z 14011KT 15SM FEW019 03/M03 A3030 RMK CF2 SLP294=

TAF CYQR 201738Z 2018/2118 15012KT P6SM FEW015 TEMPO 2018/2020 BKN015
FM202000 13012KT P6SM SKC
RMK NXT FCST BY 210000Z=

MOOSE JAW/AIR VICE MARSHAL C.M. MCEWEN/SK    

METAR CYMJ 202000Z 12011G18KT 15SM FEW250 06/M04 A3024 RMK CI2 SLP271=
METAR CYMJ 201900Z 13012KT 15SM FEW030 FEW250 05/M03 A3027 RMK SC1CI2 SLP280=
METAR CYMJ 201800Z 13011KT 15SM FEW028 FEW250 04/M03 A3028 RMK SC1CI1 SLP285=

TAF CYMJ 201730Z 2018/2106 14012KT P6SM FEW020 SCT250
RMK NXT FCST BY 210000Z=


RADAR PCPN RATE
To the Product Selector
Pacific Canada      Western Canada     

SATELLITE VISIBLE
To the Product Selector
West Canada      

SATELLITE INFRARED
To the Product Selector
West Canada     

GRAPHICAL FA CLOUDS & WEATHER FORECASTS
To the Product Selector
Graphical FA gfacn32      

GRAPHICAL FA ICING, TURBULENCE & FREEZING LEVEL FORECASTS
To the Product Selector
Graphical FA gfacn32      

FDTEXT Low Level FD. Temperatures are not forecast for the 3,000-foot level.
To the Product Selector
STN YQR - REGINA. SASK for use 3000 6000 9000 12000 18000
FDCN01 CWAO FCST BASED ON 201200 DATA VALID 201800 17-21 1517+01 1509+01 1610-02 1614-14
FDCN02 CWAO FCST BASED ON 201200 DATA VALID 210000 21-06 1714+02 1808+01 2009-02 2015-14
FDCN03 CWAO FCST BASED ON 201200 DATA VALID 211200 06-17 2309+03 2812+01 2716-05 2617-17



Your time UTC time
Weather data provided by Environment Canada and NAV CANADA